sensor_id;sensor_type;location;lat;lon;timestamp;temperature;humidity
60313;DHT22;46158;52.850;6.970;2023-08-12T00:01:51;21.40;84.80
60313;DHT22;46158;52.850;6.970;2023-08-12T00:04:17;21.40;84.80
60313;DHT22;46158;52.850;6.970;2023-08-12T00:06:43;21.40;84.80
60313;DHT22;46158;52.850;6.970;2023-08-12T00:09:09;21.40;84.80
60313;DHT22;46158;52.850;6.970;2023-08-12T00:11:37;21.40;84.80
60313;DHT22;46158;52.850;6.970;2023-08-12T00:14:04;21.40;84.80
60313;DHT22;46158;52.850;6.970;2023-08-12T00:16:30;21.40;84.80
60313;DHT22;46158;52.850;6.970;2023-08-12T00:18:58;21.40;84.80
60313;DHT22;46158;52.850;6.970;2023-08-12T00:21:25;21.40;84.80
60313;DHT22;46158;52.850;6.970;2023-08-12T00:23:50;21.40;84.80
60313;DHT22;46158;52.850;6.970;2023-08-12T00:26:16;21.40;84.90
60313;DHT22;46158;52.850;6.970;2023-08-12T00:28:42;21.40;84.90
60313;DHT22;46158;52.850;6.970;2023-08-12T00:31:07;21.40;84.90
60313;DHT22;46158;52.850;6.970;2023-08-12T00:33:33;21.40;84.90
60313;DHT22;46158;52.850;6.970;2023-08-12T00:35:59;21.40;84.90
60313;DHT22;46158;52.850;6.970;2023-08-12T00:38:25;21.40;84.90
60313;DHT22;46158;52.850;6.970;2023-08-12T00:40:50;21.30;84.80
60313;DHT22;46158;52.850;6.970;2023-08-12T00:43:16;21.40;84.90
60313;DHT22;46158;52.850;6.970;2023-08-12T00:45:42;21.40;84.90
60313;DHT22;46158;52.850;6.970;2023-08-12T00:48:09;21.40;84.90
60313;DHT22;46158;52.850;6.970;2023-08-12T00:50:39;21.40;84.90
60313;DHT22;46158;52.850;6.970;2023-08-12T00:53:06;21.40;84.90
60313;DHT22;46158;52.850;6.970;2023-08-12T00:55:33;21.40;84.90
60313;DHT22;46158;52.850;6.970;2023-08-12T00:58:02;21.40;84.90
60313;DHT22;46158;52.850;6.970;2023-08-12T01:00:28;21.30;84.80
60313;DHT22;46158;52.850;6.970;2023-08-12T01:02:54;21.40;84.90
60313;DHT22;46158;52.850;6.970;2023-08-12T01:05:22;21.30;84.90
60313;DHT22;46158;52.850;6.970;2023-08-12T01:07:48;21.30;84.90
60313;DHT22;46158;52.850;6.970;2023-08-12T01:10:14;21.30;84.90
60313;DHT22;46158;52.850;6.970;2023-08-12T01:12:50;21.40;84.90
60313;DHT22;46158;52.850;6.970;2023-08-12T01:15:24;21.30;84.80
60313;DHT22;46158;52.850;6.970;2023-08-12T01:17:53;21.40;84.90
60313;DHT22;46158;52.850;6.970;2023-08-12T01:20:23;21.30;84.90
60313;DHT22;46158;52.850;6.970;2023-08-12T01:25:33;21.30;84.80
60313;DHT22;46158;52.850;6.970;2023-08-12T01:27:58;21.30;84.90
60313;DHT22;46158;52.850;6.970;2023-08-12T01:30:24;21.30;85.00
60313;DHT22;46158;52.850;6.970;2023-08-12T01:35:43;21.30;85.00
60313;DHT22;46158;52.850;6.970;2023-08-12T01:38:11;21.30;84.90
60313;DHT22;46158;52.850;6.970;2023-08-12T01:40:38;21.20;84.90
60313;DHT22;46158;52.850;6.970;2023-08-12T01:43:05;21.30;85.00
60313;DHT22;46158;52.850;6.970;2023-08-12T01:45:33;21.30;85.00
60313;DHT22;46158;52.850;6.970;2023-08-12T01:48:00;21.30;85.00
60313;DHT22;46158;52.850;6.970;2023-08-12T01:50:25;21.30;85.00
60313;DHT22;46158;52.850;6.970;2023-08-12T01:52:52;21.30;84.90
60313;DHT22;46158;52.850;6.970;2023-08-12T01:55:19;21.30;84.90
60313;DHT22;46158;52.850;6.970;2023-08-12T01:57:45;21.30;85.00
60313;DHT22;46158;52.850;6.970;2023-08-12T02:00:11;21.30;85.00
60313;DHT22;46158;52.850;6.970;2023-08-12T02:02:37;21.30;84.90
60313;DHT22;46158;52.850;6.970;2023-08-12T02:05:02;21.30;85.00
60313;DHT22;46158;52.850;6.970;2023-08-12T02:07:28;21.30;85.00
60313;DHT22;46158;52.850;6.970;2023-08-12T02:09:54;21.20;84.90
60313;DHT22;46158;52.850;6.970;2023-08-12T02:12:20;21.20;84.90
60313;DHT22;46158;52.850;6.970;2023-08-12T02:14:45;21.20;84.90
60313;DHT22;46158;52.850;6.970;2023-08-12T02:17:12;21.20;84.90
60313;DHT22;46158;52.850;6.970;2023-08-12T02:19:38;21.20;84.90
60313;DHT22;46158;52.850;6.970;2023-08-12T02:22:04;21.20;84.90
60313;DHT22;46158;52.850;6.970;2023-08-12T02:24:29;21.20;84.90
60313;DHT22;46158;52.850;6.970;2023-08-12T02:26:55;21.20;84.90
60313;DHT22;46158;52.850;6.970;2023-08-12T02:29:21;21.20;84.80
60313;DHT22;46158;52.850;6.970;2023-08-12T02:31:47;21.20;84.80
60313;DHT22;46158;52.850;6.970;2023-08-12T02:34:12;21.20;84.80
60313;DHT22;46158;52.850;6.970;2023-08-12T02:36:38;21.20;84.80
60313;DHT22;46158;52.850;6.970;2023-08-12T02:39:04;21.20;84.70
60313;DHT22;46158;52.850;6.970;2023-08-12T02:41:30;21.20;84.70
60313;DHT22;46158;52.850;6.970;2023-08-12T02:43:56;21.20;84.60
60313;DHT22;46158;52.850;6.970;2023-08-12T02:46:22;21.20;84.60
60313;DHT22;46158;52.850;6.970;2023-08-12T02:48:48;21.20;84.60
60313;DHT22;46158;52.850;6.970;2023-08-12T02:51:13;21.20;84.50
60313;DHT22;46158;52.850;6.970;2023-08-12T02:53:39;21.20;84.50
60313;DHT22;46158;52.850;6.970;2023-08-12T02:56:05;21.20;84.40
60313;DHT22;46158;52.850;6.970;2023-08-12T02:58:31;21.20;84.50
60313;DHT22;46158;52.850;6.970;2023-08-12T03:00:56;21.20;84.40
60313;DHT22;46158;52.850;6.970;2023-08-12T03:03:22;21.10;84.30
60313;DHT22;46158;52.850;6.970;2023-08-12T03:05:48;21.10;84.30
60313;DHT22;46158;52.850;6.970;2023-08-12T03:08:15;21.10;84.20
60313;DHT22;46158;52.850;6.970;2023-08-12T03:10:41;21.10;84.20
60313;DHT22;46158;52.850;6.970;2023-08-12T03:13:08;21.10;84.10
60313;DHT22;46158;52.850;6.970;2023-08-12T03:15:33;21.10;84.10
60313;DHT22;46158;52.850;6.970;2023-08-12T03:17:59;21.10;84.10
60313;DHT22;46158;52.850;6.970;2023-08-12T03:20:25;21.10;84.10
60313;DHT22;46158;52.850;6.970;2023-08-12T03:22:51;21.10;84.10
60313;DHT22;46158;52.850;6.970;2023-08-12T03:25:16;21.10;84.10
60313;DHT22;46158;52.850;6.970;2023-08-12T03:27:42;21.10;84.10
60313;DHT22;46158;52.850;6.970;2023-08-12T03:30:08;21.10;84.10
60313;DHT22;46158;52.850;6.970;2023-08-12T03:32:34;21.10;84.10
60313;DHT22;46158;52.850;6.970;2023-08-12T03:35:00;21.10;84.00
60313;DHT22;46158;52.850;6.970;2023-08-12T03:37:26;21.10;84.00
60313;DHT22;46158;52.850;6.970;2023-08-12T03:39:51;21.10;84.00
60313;DHT22;46158;52.850;6.970;2023-08-12T03:42:17;21.10;84.00
60313;DHT22;46158;52.850;6.970;2023-08-12T03:44:44;21.10;84.00
60313;DHT22;46158;52.850;6.970;2023-08-12T03:47:10;21.10;84.00
60313;DHT22;46158;52.850;6.970;2023-08-12T03:49:37;21.10;84.00
60313;DHT22;46158;52.850;6.970;2023-08-12T03:52:03;21.10;83.90
60313;DHT22;46158;52.850;6.970;2023-08-12T03:54:29;21.10;84.00
60313;DHT22;46158;52.850;6.970;2023-08-12T03:56:55;21.10;84.00
60313;DHT22;46158;52.850;6.970;2023-08-12T03:59:21;21.10;84.00
60313;DHT22;46158;52.850;6.970;2023-08-12T04:01:47;21.00;83.90
60313;DHT22;46158;52.850;6.970;2023-08-12T04:04:13;21.00;83.90
60313;DHT22;46158;52.850;6.970;2023-08-12T04:06:38;21.00;83.90
60313;DHT22;46158;52.850;6.970;2023-08-12T04:09:04;21.00;83.90
60313;DHT22;46158;52.850;6.970;2023-08-12T04:11:30;21.00;83.90
60313;DHT22;46158;52.850;6.970;2023-08-12T04:13:56;21.00;83.90
60313;DHT22;46158;52.850;6.970;2023-08-12T04:16:23;21.00;83.90
60313;DHT22;46158;52.850;6.970;2023-08-12T04:18:48;21.00;83.90
60313;DHT22;46158;52.850;6.970;2023-08-12T04:21:14;21.00;84.00
60313;DHT22;46158;52.850;6.970;2023-08-12T04:23:40;21.00;84.00
60313;DHT22;46158;52.850;6.970;2023-08-12T04:26:05;21.00;84.10
60313;DHT22;46158;52.850;6.970;2023-08-12T04:28:31;21.00;84.10
60313;DHT22;46158;52.850;6.970;2023-08-12T04:30:57;21.00;84.00
60313;DHT22;46158;52.850;6.970;2023-08-12T04:33:23;21.00;84.00
60313;DHT22;46158;52.850;6.970;2023-08-12T04:35:49;21.00;84.00
60313;DHT22;46158;52.850;6.970;2023-08-12T04:38:15;21.00;84.00
60313;DHT22;46158;52.850;6.970;2023-08-12T04:40:41;21.00;84.00
60313;DHT22;46158;52.850;6.970;2023-08-12T04:43:10;21.00;84.00
60313;DHT22;46158;52.850;6.970;2023-08-12T04:45:37;21.00;83.90
60313;DHT22;46158;52.850;6.970;2023-08-12T04:48:04;21.00;84.00
60313;DHT22;46158;52.850;6.970;2023-08-12T04:50:31;21.00;84.00
60313;DHT22;46158;52.850;6.970;2023-08-12T04:52:57;21.00;84.10
60313;DHT22;46158;52.850;6.970;2023-08-12T04:55:25;21.00;83.90
60313;DHT22;46158;52.850;6.970;2023-08-12T04:57:51;20.90;83.80
60313;DHT22;46158;52.850;6.970;2023-08-12T05:00:17;20.90;83.90
60313;DHT22;46158;52.850;6.970;2023-08-12T05:02:43;20.90;83.90
60313;DHT22;46158;52.850;6.970;2023-08-12T05:05:09;21.00;84.00
60313;DHT22;46158;52.850;6.970;2023-08-12T05:07:34;21.00;84.00
60313;DHT22;46158;52.850;6.970;2023-08-12T05:10:00;20.90;83.90
60313;DHT22;46158;52.850;6.970;2023-08-12T05:12:26;20.90;83.90
60313;DHT22;46158;52.850;6.970;2023-08-12T05:14:52;20.90;84.60
60313;DHT22;46158;52.850;6.970;2023-08-12T05:17:17;20.90;83.90
60313;DHT22;46158;52.850;6.970;2023-08-12T05:19:43;20.90;83.90
60313;DHT22;46158;52.850;6.970;2023-08-12T05:22:08;20.90;84.00
60313;DHT22;46158;52.850;6.970;2023-08-12T05:24:34;20.90;84.00
60313;DHT22;46158;52.850;6.970;2023-08-12T05:27:00;20.90;84.00
60313;DHT22;46158;52.850;6.970;2023-08-12T05:29:26;20.90;84.10
60313;DHT22;46158;52.850;6.970;2023-08-12T05:31:51;20.90;84.00
60313;DHT22;46158;52.850;6.970;2023-08-12T05:34:17;20.90;84.10
60313;DHT22;46158;52.850;6.970;2023-08-12T05:36:43;20.90;84.10
60313;DHT22;46158;52.850;6.970;2023-08-12T05:39:08;20.90;84.10
60313;DHT22;46158;52.850;6.970;2023-08-12T05:41:34;20.90;84.10
60313;DHT22;46158;52.850;6.970;2023-08-12T05:44:00;20.90;84.10
60313;DHT22;46158;52.850;6.970;2023-08-12T05:46:25;20.90;84.10
60313;DHT22;46158;52.850;6.970;2023-08-12T05:48:51;20.90;84.10
60313;DHT22;46158;52.850;6.970;2023-08-12T05:51:17;20.80;84.00
60313;DHT22;46158;52.850;6.970;2023-08-12T05:53:42;20.90;84.10
60313;DHT22;46158;52.850;6.970;2023-08-12T05:56:08;20.90;84.20
60313;DHT22;46158;52.850;6.970;2023-08-12T05:58:33;20.90;84.30
60313;DHT22;46158;52.850;6.970;2023-08-12T06:00:59;20.90;84.50
60313;DHT22;46158;52.850;6.970;2023-08-12T06:03:25;20.90;84.80
60313;DHT22;46158;52.850;6.970;2023-08-12T06:05:52;20.90;85.10
60313;DHT22;46158;52.850;6.970;2023-08-12T06:08:17;20.90;85.50
60313;DHT22;46158;52.850;6.970;2023-08-12T06:10:43;20.90;85.70
60313;DHT22;46158;52.850;6.970;2023-08-12T06:13:09;20.90;86.00
60313;DHT22;46158;52.850;6.970;2023-08-12T06:15:34;20.90;86.10
60313;DHT22;46158;52.850;6.970;2023-08-12T06:18:01;20.90;86.30
60313;DHT22;46158;52.850;6.970;2023-08-12T06:20:26;20.90;86.30
60313;DHT22;46158;52.850;6.970;2023-08-12T06:22:52;20.90;86.20
60313;DHT22;46158;52.850;6.970;2023-08-12T06:25:18;20.90;86.20
60313;DHT22;46158;52.850;6.970;2023-08-12T06:27:45;20.90;86.10
60313;DHT22;46158;52.850;6.970;2023-08-12T06:30:12;20.90;86.00
60313;DHT22;46158;52.850;6.970;2023-08-12T06:32:38;20.90;86.00
60313;DHT22;46158;52.850;6.970;2023-08-12T06:35:04;21.00;86.10
60313;DHT22;46158;52.850;6.970;2023-08-12T06:37:30;20.90;86.00
60313;DHT22;46158;52.850;6.970;2023-08-12T06:39:55;21.00;86.00
60313;DHT22;46158;52.850;6.970;2023-08-12T06:42:22;21.00;86.00
60313;DHT22;46158;52.850;6.970;2023-08-12T06:44:55;21.00;86.00
60313;DHT22;46158;52.850;6.970;2023-08-12T06:47:21;21.00;85.90
60313;DHT22;46158;52.850;6.970;2023-08-12T06:49:47;21.00;86.00
60313;DHT22;46158;52.850;6.970;2023-08-12T06:52:12;21.00;86.10
60313;DHT22;46158;52.850;6.970;2023-08-12T06:54:38;21.00;86.20
60313;DHT22;46158;52.850;6.970;2023-08-12T06:57:04;21.00;86.10
60313;DHT22;46158;52.850;6.970;2023-08-12T06:59:30;21.00;86.20
60313;DHT22;46158;52.850;6.970;2023-08-12T07:01:55;21.00;86.20
60313;DHT22;46158;52.850;6.970;2023-08-12T07:04:21;21.00;86.10
60313;DHT22;46158;52.850;6.970;2023-08-12T07:06:47;21.00;86.10
60313;DHT22;46158;52.850;6.970;2023-08-12T07:09:13;21.00;86.10
60313;DHT22;46158;52.850;6.970;2023-08-12T07:11:39;21.00;86.10
60313;DHT22;46158;52.850;6.970;2023-08-12T07:14:05;21.00;85.50
60313;DHT22;46158;52.850;6.970;2023-08-12T07:16:31;21.00;86.10
60313;DHT22;46158;52.850;6.970;2023-08-12T07:18:56;21.00;86.10
60313;DHT22;46158;52.850;6.970;2023-08-12T07:21:22;21.00;86.00
60313;DHT22;46158;52.850;6.970;2023-08-12T07:23:48;21.00;86.00
60313;DHT22;46158;52.850;6.970;2023-08-12T07:26:13;21.00;86.00
60313;DHT22;46158;52.850;6.970;2023-08-12T07:28:39;21.00;86.00
60313;DHT22;46158;52.850;6.970;2023-08-12T07:31:05;21.00;86.00
60313;DHT22;46158;52.850;6.970;2023-08-12T07:33:31;21.00;86.00
60313;DHT22;46158;52.850;6.970;2023-08-12T07:35:56;21.00;86.10
60313;DHT22;46158;52.850;6.970;2023-08-12T07:38:22;21.00;86.10
60313;DHT22;46158;52.850;6.970;2023-08-12T07:40:49;21.00;86.10
60313;DHT22;46158;52.850;6.970;2023-08-12T07:43:15;21.00;86.10
60313;DHT22;46158;52.850;6.970;2023-08-12T07:45:40;21.00;86.20
60313;DHT22;46158;52.850;6.970;2023-08-12T07:48:06;21.00;86.20
60313;DHT22;46158;52.850;6.970;2023-08-12T07:50:32;21.00;86.20
60313;DHT22;46158;52.850;6.970;2023-08-12T07:52:58;21.00;86.30
60313;DHT22;46158;52.850;6.970;2023-08-12T07:55:23;21.00;86.20
60313;DHT22;46158;52.850;6.970;2023-08-12T07:57:49;21.00;86.30
60313;DHT22;46158;52.850;6.970;2023-08-12T08:00:15;21.00;86.30
60313;DHT22;46158;52.850;6.970;2023-08-12T08:02:41;21.00;86.40
60313;DHT22;46158;52.850;6.970;2023-08-12T08:05:07;21.00;86.70
60313;DHT22;46158;52.850;6.970;2023-08-12T08:07:33;21.00;85.90
60313;DHT22;46158;52.850;6.970;2023-08-12T08:09:59;21.00;86.00
60313;DHT22;46158;52.850;6.970;2023-08-12T08:12:25;21.00;85.90
60313;DHT22;46158;52.850;6.970;2023-08-12T08:14:51;21.00;86.00
60313;DHT22;46158;52.850;6.970;2023-08-12T08:17:16;21.00;86.00
60313;DHT22;46158;52.850;6.970;2023-08-12T08:19:42;21.00;86.20
60313;DHT22;46158;52.850;6.970;2023-08-12T08:22:08;21.00;86.20
60313;DHT22;46158;52.850;6.970;2023-08-12T08:24:34;21.00;86.30
60313;DHT22;46158;52.850;6.970;2023-08-12T08:27:00;21.00;86.40
60313;DHT22;46158;52.850;6.970;2023-08-12T08:29:25;21.00;86.60
60313;DHT22;46158;52.850;6.970;2023-08-12T08:31:51;21.00;86.70
60313;DHT22;46158;52.850;6.970;2023-08-12T08:34:17;21.00;86.60
60313;DHT22;46158;52.850;6.970;2023-08-12T08:36:42;21.00;86.70
60313;DHT22;46158;52.850;6.970;2023-08-12T08:39:09;21.00;86.80
60313;DHT22;46158;52.850;6.970;2023-08-12T08:41:39;21.00;87.00
60313;DHT22;46158;52.850;6.970;2023-08-12T08:44:07;21.00;87.20
60313;DHT22;46158;52.850;6.970;2023-08-12T08:46:33;21.00;87.40
60313;DHT22;46158;52.850;6.970;2023-08-12T08:49:00;21.00;87.60
60313;DHT22;46158;52.850;6.970;2023-08-12T08:51:32;21.00;87.70
60313;DHT22;46158;52.850;6.970;2023-08-12T08:53:58;21.00;87.90
60313;DHT22;46158;52.850;6.970;2023-08-12T08:56:24;21.00;88.00
60313;DHT22;46158;52.850;6.970;2023-08-12T08:58:50;21.00;88.20
60313;DHT22;46158;52.850;6.970;2023-08-12T09:01:19;21.00;88.40
60313;DHT22;46158;52.850;6.970;2023-08-12T09:03:46;21.00;88.40
60313;DHT22;46158;52.850;6.970;2023-08-12T09:06:12;21.00;88.20
60313;DHT22;46158;52.850;6.970;2023-08-12T09:08:40;21.00;88.00
60313;DHT22;46158;52.850;6.970;2023-08-12T09:11:08;21.00;87.70
60313;DHT22;46158;52.850;6.970;2023-08-12T09:13:34;21.00;87.70
60313;DHT22;46158;52.850;6.970;2023-08-12T09:16:00;21.00;87.60
60313;DHT22;46158;52.850;6.970;2023-08-12T09:18:26;21.00;87.50
60313;DHT22;46158;52.850;6.970;2023-08-12T09:20:52;21.00;87.30
60313;DHT22;46158;52.850;6.970;2023-08-12T09:23:18;20.90;87.20
60313;DHT22;46158;52.850;6.970;2023-08-12T09:25:44;20.90;87.20
60313;DHT22;46158;52.850;6.970;2023-08-12T09:28:11;21.00;87.30
60313;DHT22;46158;52.850;6.970;2023-08-12T09:30:38;20.90;87.40
60313;DHT22;46158;52.850;6.970;2023-08-12T09:33:05;21.00;87.70
60313;DHT22;46158;52.850;6.970;2023-08-12T09:35:37;21.00;88.40
60313;DHT22;46158;52.850;6.970;2023-08-12T09:38:04;21.00;89.10
60313;DHT22;46158;52.850;6.970;2023-08-12T09:40:35;21.00;89.40
60313;DHT22;46158;52.850;6.970;2023-08-12T09:43:01;21.00;89.60
60313;DHT22;46158;52.850;6.970;2023-08-12T09:45:27;21.00;90.20
60313;DHT22;46158;52.850;6.970;2023-08-12T09:47:54;21.00;89.90
60313;DHT22;46158;52.850;6.970;2023-08-12T09:50:23;21.00;90.20
60313;DHT22;46158;52.850;6.970;2023-08-12T09:52:51;21.00;90.40
60313;DHT22;46158;52.850;6.970;2023-08-12T09:55:18;21.00;90.60
60313;DHT22;46158;52.850;6.970;2023-08-12T09:57:44;21.00;90.70
60313;DHT22;46158;52.850;6.970;2023-08-12T10:00:14;21.00;90.80
60313;DHT22;46158;52.850;6.970;2023-08-12T10:02:48;21.00;90.90
60313;DHT22;46158;52.850;6.970;2023-08-12T10:05:27;21.00;90.80
60313;DHT22;46158;52.850;6.970;2023-08-12T10:07:54;21.00;90.90
60313;DHT22;46158;52.850;6.970;2023-08-12T10:10:23;21.00;90.90
60313;DHT22;46158;52.850;6.970;2023-08-12T10:12:50;21.00;90.90
60313;DHT22;46158;52.850;6.970;2023-08-12T10:15:17;21.00;90.80
60313;DHT22;46158;52.850;6.970;2023-08-12T10:17:46;21.00;90.80
60313;DHT22;46158;52.850;6.970;2023-08-12T10:20:14;21.00;90.90
60313;DHT22;46158;52.850;6.970;2023-08-12T10:22:43;21.00;90.90
60313;DHT22;46158;52.850;6.970;2023-08-12T10:25:09;21.00;90.90
60313;DHT22;46158;52.850;6.970;2023-08-12T10:27:38;21.00;91.00
60313;DHT22;46158;52.850;6.970;2023-08-12T10:30:05;21.00;91.00
60313;DHT22;46158;52.850;6.970;2023-08-12T10:32:33;20.90;91.00
60313;DHT22;46158;52.850;6.970;2023-08-12T10:34:59;20.90;91.10
60313;DHT22;46158;52.850;6.970;2023-08-12T10:37:26;21.00;91.10
60313;DHT22;46158;52.850;6.970;2023-08-12T10:39:53;20.90;91.10
60313;DHT22;46158;52.850;6.970;2023-08-12T10:42:41;21.00;91.20
60313;DHT22;46158;52.850;6.970;2023-08-12T10:45:17;21.00;91.20
60313;DHT22;46158;52.850;6.970;2023-08-12T10:47:43;20.90;91.10
60313;DHT22;46158;52.850;6.970;2023-08-12T10:50:21;20.90;91.20
60313;DHT22;46158;52.850;6.970;2023-08-12T10:52:48;20.90;91.10
60313;DHT22;46158;52.850;6.970;2023-08-12T10:55:23;20.90;91.30
60313;DHT22;46158;52.850;6.970;2023-08-12T10:57:53;20.90;91.10
60313;DHT22;46158;52.850;6.970;2023-08-12T11:00:24;20.90;91.10
60313;DHT22;46158;52.850;6.970;2023-08-12T11:02:52;20.90;91.20
60313;DHT22;46158;52.850;6.970;2023-08-12T11:05:18;20.90;91.50
60313;DHT22;46158;52.850;6.970;2023-08-12T11:10:14;20.90;91.20
60313;DHT22;46158;52.850;6.970;2023-08-12T11:12:42;20.90;91.10
60313;DHT22;46158;52.850;6.970;2023-08-12T11:15:11;20.90;91.00
60313;DHT22;46158;52.850;6.970;2023-08-12T11:17:40;20.90;91.00
60313;DHT22;46158;52.850;6.970;2023-08-12T11:20:08;20.90;90.90
60313;DHT22;46158;52.850;6.970;2023-08-12T11:22:40;20.90;90.80
60313;DHT22;46158;52.850;6.970;2023-08-12T11:25:07;20.90;90.70
60313;DHT22;46158;52.850;6.970;2023-08-12T11:27:47;20.90;90.70
60313;DHT22;46158;52.850;6.970;2023-08-12T11:30:14;20.90;90.60
60313;DHT22;46158;52.850;6.970;2023-08-12T11:32:47;20.90;90.60
60313;DHT22;46158;52.850;6.970;2023-08-12T11:35:14;20.90;90.60
60313;DHT22;46158;52.850;6.970;2023-08-12T11:37:42;20.90;90.50
60313;DHT22;46158;52.850;6.970;2023-08-12T11:40:09;20.90;90.50
60313;DHT22;46158;52.850;6.970;2023-08-12T11:42:39;20.90;90.40
60313;DHT22;46158;52.850;6.970;2023-08-12T11:45:06;20.90;90.40
60313;DHT22;46158;52.850;6.970;2023-08-12T11:47:36;20.90;90.70
60313;DHT22;46158;52.850;6.970;2023-08-12T11:50:03;20.90;90.30
60313;DHT22;46158;52.850;6.970;2023-08-12T11:52:29;20.90;90.30
60313;DHT22;46158;52.850;6.970;2023-08-12T11:54:56;20.90;90.30
60313;DHT22;46158;52.850;6.970;2023-08-12T11:57:22;20.90;90.20
60313;DHT22;46158;52.850;6.970;2023-08-12T11:59:52;20.90;90.20
60313;DHT22;46158;52.850;6.970;2023-08-12T12:02:18;20.90;90.20
60313;DHT22;46158;52.850;6.970;2023-08-12T12:04:44;20.90;90.20
60313;DHT22;46158;52.850;6.970;2023-08-12T12:07:25;20.90;90.20
60313;DHT22;46158;52.850;6.970;2023-08-12T12:09:52;20.90;90.10
60313;DHT22;46158;52.850;6.970;2023-08-12T12:12:22;20.90;90.20
60313;DHT22;46158;52.850;6.970;2023-08-12T12:14:53;20.90;90.10
60313;DHT22;46158;52.850;6.970;2023-08-12T12:17:24;20.90;90.10
60313;DHT22;46158;52.850;6.970;2023-08-12T12:19:58;20.90;90.10
60313;DHT22;46158;52.850;6.970;2023-08-12T12:22:31;20.90;90.10
60313;DHT22;46158;52.850;6.970;2023-08-12T12:24:59;20.90;90.10
60313;DHT22;46158;52.850;6.970;2023-08-12T12:27:25;20.90;90.10
60313;DHT22;46158;52.850;6.970;2023-08-12T12:29:52;20.90;90.10
60313;DHT22;46158;52.850;6.970;2023-08-12T12:32:21;20.90;90.00
60313;DHT22;46158;52.850;6.970;2023-08-12T12:34:47;20.90;90.30
60313;DHT22;46158;52.850;6.970;2023-08-12T12:37:13;20.90;90.00
60313;DHT22;46158;52.850;6.970;2023-08-12T12:39:40;20.90;90.00
60313;DHT22;46158;52.850;6.970;2023-08-12T12:42:06;20.90;90.00
60313;DHT22;46158;52.850;6.970;2023-08-12T12:44:31;20.90;90.00
60313;DHT22;46158;52.850;6.970;2023-08-12T12:46:57;20.90;90.00
60313;DHT22;46158;52.850;6.970;2023-08-12T12:49:23;20.90;89.90
60313;DHT22;46158;52.850;6.970;2023-08-12T12:51:49;20.90;90.00
60313;DHT22;46158;52.850;6.970;2023-08-12T12:54:14;20.90;89.90
60313;DHT22;46158;52.850;6.970;2023-08-12T12:56:40;20.90;89.90
60313;DHT22;46158;52.850;6.970;2023-08-12T12:59:06;20.90;89.80
60313;DHT22;46158;52.850;6.970;2023-08-12T13:01:32;20.90;89.80
60313;DHT22;46158;52.850;6.970;2023-08-12T13:03:57;20.90;89.80
60313;DHT22;46158;52.850;6.970;2023-08-12T13:06:23;20.90;89.80
60313;DHT22;46158;52.850;6.970;2023-08-12T13:08:49;20.90;89.70
60313;DHT22;46158;52.850;6.970;2023-08-12T13:11:16;20.90;89.80
60313;DHT22;46158;52.850;6.970;2023-08-12T13:13:41;20.90;89.70
60313;DHT22;46158;52.850;6.970;2023-08-12T13:16:07;20.90;89.70
60313;DHT22;46158;52.850;6.970;2023-08-12T13:18:35;20.90;89.70
60313;DHT22;46158;52.850;6.970;2023-08-12T13:21:01;20.90;89.60
60313;DHT22;46158;52.850;6.970;2023-08-12T13:23:27;20.90;89.60
60313;DHT22;46158;52.850;6.970;2023-08-12T13:25:53;20.90;89.60
60313;DHT22;46158;52.850;6.970;2023-08-12T13:28:19;21.00;89.60
60313;DHT22;46158;52.850;6.970;2023-08-12T13:30:47;20.90;89.60
60313;DHT22;46158;52.850;6.970;2023-08-12T13:33:13;20.90;89.50
60313;DHT22;46158;52.850;6.970;2023-08-12T13:35:40;20.90;89.50
60313;DHT22;46158;52.850;6.970;2023-08-12T13:38:05;21.00;89.50
60313;DHT22;46158;52.850;6.970;2023-08-12T13:40:31;20.90;89.40
60313;DHT22;46158;52.850;6.970;2023-08-12T13:42:57;21.00;89.40
60313;DHT22;46158;52.850;6.970;2023-08-12T13:45:22;20.90;89.40
60313;DHT22;46158;52.850;6.970;2023-08-12T13:47:50;20.90;89.30
60313;DHT22;46158;52.850;6.970;2023-08-12T13:50:16;20.90;89.40
60313;DHT22;46158;52.850;6.970;2023-08-12T13:52:42;20.90;89.40
60313;DHT22;46158;52.850;6.970;2023-08-12T13:55:08;20.90;89.40
60313;DHT22;46158;52.850;6.970;2023-08-12T13:57:35;20.90;89.40
60313;DHT22;46158;52.850;6.970;2023-08-12T14:00:00;20.90;89.30
60313;DHT22;46158;52.850;6.970;2023-08-12T14:02:27;20.90;89.30
60313;DHT22;46158;52.850;6.970;2023-08-12T14:04:53;21.00;89.40
60313;DHT22;46158;52.850;6.970;2023-08-12T14:07:19;21.00;89.30
60313;DHT22;46158;52.850;6.970;2023-08-12T14:09:46;20.90;89.30
60313;DHT22;46158;52.850;6.970;2023-08-12T14:12:12;20.90;89.30
60313;DHT22;46158;52.850;6.970;2023-08-12T14:14:37;20.90;89.30
60313;DHT22;46158;52.850;6.970;2023-08-12T14:17:03;21.00;89.40
60313;DHT22;46158;52.850;6.970;2023-08-12T14:19:29;20.90;89.20
60313;DHT22;46158;52.850;6.970;2023-08-12T14:21:54;21.00;89.30
60313;DHT22;46158;52.850;6.970;2023-08-12T14:24:20;20.90;89.20
60313;DHT22;46158;52.850;6.970;2023-08-12T14:26:46;21.00;89.20
60313;DHT22;46158;52.850;6.970;2023-08-12T14:29:13;20.90;89.10
60313;DHT22;46158;52.850;6.970;2023-08-12T14:31:39;20.90;89.10
60313;DHT22;46158;52.850;6.970;2023-08-12T14:34:04;20.90;89.10
60313;DHT22;46158;52.850;6.970;2023-08-12T14:36:30;21.00;89.10
60313;DHT22;46158;52.850;6.970;2023-08-12T14:38:57;21.00;89.10
60313;DHT22;46158;52.850;6.970;2023-08-12T14:41:22;21.00;89.10
60313;DHT22;46158;52.850;6.970;2023-08-12T14:43:48;20.90;89.00
60313;DHT22;46158;52.850;6.970;2023-08-12T14:46:14;21.00;89.10
60313;DHT22;46158;52.850;6.970;2023-08-12T14:48:39;21.00;89.10
60313;DHT22;46158;52.850;6.970;2023-08-12T14:51:05;21.00;89.10
60313;DHT22;46158;52.850;6.970;2023-08-12T14:53:31;20.90;88.90
60313;DHT22;46158;52.850;6.970;2023-08-12T14:55:56;20.90;88.90
60313;DHT22;46158;52.850;6.970;2023-08-12T14:58:22;21.00;89.00
60313;DHT22;46158;52.850;6.970;2023-08-12T15:00:48;20.90;88.90
60313;DHT22;46158;52.850;6.970;2023-08-12T15:03:14;21.00;89.00
60313;DHT22;46158;52.850;6.970;2023-08-12T15:05:41;21.00;89.00
60313;DHT22;46158;52.850;6.970;2023-08-12T15:08:06;21.00;89.10
60313;DHT22;46158;52.850;6.970;2023-08-12T15:10:32;21.00;89.00
60313;DHT22;46158;52.850;6.970;2023-08-12T15:12:59;21.00;89.00
60313;DHT22;46158;52.850;6.970;2023-08-12T15:15:25;21.00;89.00
60313;DHT22;46158;52.850;6.970;2023-08-12T15:17:50;21.00;88.90
60313;DHT22;46158;52.850;6.970;2023-08-12T15:20:17;21.00;88.90
60313;DHT22;46158;52.850;6.970;2023-08-12T15:22:42;21.00;88.80
60313;DHT22;46158;52.850;6.970;2023-08-12T15:25:08;21.00;88.90
60313;DHT22;46158;52.850;6.970;2023-08-12T15:27:34;21.00;88.80
60313;DHT22;46158;52.850;6.970;2023-08-12T15:30:00;21.00;88.70
60313;DHT22;46158;52.850;6.970;2023-08-12T15:32:29;21.00;88.70
60313;DHT22;46158;52.850;6.970;2023-08-12T15:34:56;21.00;88.70